sensor_id;sensor_type;location;lat;lon;timestamp;temperature;humidity
18446;DHT22;9352;50.888;4.466;2022-12-31T00:01:06;14.50;99.90
18446;DHT22;9352;50.888;4.466;2022-12-31T00:03:33;14.50;99.90
18446;DHT22;9352;50.888;4.466;2022-12-31T00:06:01;14.50;99.90
18446;DHT22;9352;50.888;4.466;2022-12-31T00:08:28;14.60;99.90
18446;DHT22;9352;50.888;4.466;2022-12-31T00:10:56;14.60;99.90
18446;DHT22;9352;50.888;4.466;2022-12-31T00:13:23;14.50;99.90
18446;DHT22;9352;50.888;4.466;2022-12-31T00:15:50;14.50;99.90
18446;DHT22;9352;50.888;4.466;2022-12-31T00:18:17;14.50;99.90
18446;DHT22;9352;50.888;4.466;2022-12-31T00:20:44;14.40;99.90
18446;DHT22;9352;50.888;4.466;2022-12-31T00:23:11;14.40;99.90
18446;DHT22;9352;50.888;4.466;2022-12-31T00:25:37;14.40;99.90
18446;DHT22;9352;50.888;4.466;2022-12-31T00:28:06;14.50;99.90
18446;DHT22;9352;50.888;4.466;2022-12-31T00:30:33;14.50;99.90
18446;DHT22;9352;50.888;4.466;2022-12-31T00:33:00;14.60;99.90
18446;DHT22;9352;50.888;4.466;2022-12-31T00:35:27;14.60;99.90
18446;DHT22;9352;50.888;4.466;2022-12-31T00:37:54;14.60;99.90
18446;DHT22;9352;50.888;4.466;2022-12-31T00:40:21;14.60;99.90
18446;DHT22;9352;50.888;4.466;2022-12-31T00:42:47;14.70;99.90
18446;DHT22;9352;50.888;4.466;2022-12-31T00:45:16;14.80;99.90
18446;DHT22;9352;50.888;4.466;2022-12-31T00:47:43;14.90;99.90
18446;DHT22;9352;50.888;4.466;2022-12-31T00:50:10;14.90;99.90
18446;DHT22;9352;50.888;4.466;2022-12-31T00:52:36;15.00;99.90
18446;DHT22;9352;50.888;4.466;2022-12-31T00:55:04;15.10;99.90
18446;DHT22;9352;50.888;4.466;2022-12-31T00:57:31;15.20;99.90
18446;DHT22;9352;50.888;4.466;2022-12-31T00:59:58;15.30;99.90
18446;DHT22;9352;50.888;4.466;2022-12-31T01:02:26;15.40;99.90
18446;DHT22;9352;50.888;4.466;2022-12-31T01:04:53;15.40;99.90
18446;DHT22;9352;50.888;4.466;2022-12-31T01:07:20;15.50;99.90
18446;DHT22;9352;50.888;4.466;2022-12-31T01:09:47;15.60;99.90
18446;DHT22;9352;50.888;4.466;2022-12-31T01:12:14;15.70;99.90
18446;DHT22;9352;50.888;4.466;2022-12-31T01:14:41;15.80;99.90
18446;DHT22;9352;50.888;4.466;2022-12-31T01:17:07;15.70;99.90
18446;DHT22;9352;50.888;4.466;2022-12-31T01:19:36;15.70;99.90
18446;DHT22;9352;50.888;4.466;2022-12-31T01:22:03;15.70;99.90
18446;DHT22;9352;50.888;4.466;2022-12-31T01:24:29;15.60;99.90
18446;DHT22;9352;50.888;4.466;2022-12-31T01:26:56;15.60;99.90
18446;DHT22;9352;50.888;4.466;2022-12-31T01:29:23;15.60;99.90
18446;DHT22;9352;50.888;4.466;2022-12-31T01:31:50;15.70;99.90
18446;DHT22;9352;50.888;4.466;2022-12-31T01:34:17;15.70;99.90
18446;DHT22;9352;50.888;4.466;2022-12-31T01:36:46;15.60;99.90
18446;DHT22;9352;50.888;4.466;2022-12-31T01:39:13;15.40;99.90
18446;DHT22;9352;50.888;4.466;2022-12-31T01:41:42;15.10;99.90
18446;DHT22;9352;50.888;4.466;2022-12-31T01:47:19;14.90;99.90
18446;DHT22;9352;50.888;4.466;2022-12-31T01:49:48;14.80;99.90
18446;DHT22;9352;50.888;4.466;2022-12-31T01:52:21;14.70;99.90
18446;DHT22;9352;50.888;4.466;2022-12-31T01:54:50;14.80;99.90
18446;DHT22;9352;50.888;4.466;2022-12-31T01:57:18;15.00;99.90
18446;DHT22;9352;50.888;4.466;2022-12-31T01:59:46;15.10;99.90
18446;DHT22;9352;50.888;4.466;2022-12-31T02:02:13;15.20;99.90
18446;DHT22;9352;50.888;4.466;2022-12-31T02:04:41;15.30;99.90
18446;DHT22;9352;50.888;4.466;2022-12-31T02:07:08;15.40;99.90
18446;DHT22;9352;50.888;4.466;2022-12-31T02:09:38;15.50;99.90
18446;DHT22;9352;50.888;4.466;2022-12-31T02:12:06;15.60;99.90
18446;DHT22;9352;50.888;4.466;2022-12-31T02:14:36;15.60;99.90
18446;DHT22;9352;50.888;4.466;2022-12-31T02:17:07;15.60;99.90
18446;DHT22;9352;50.888;4.466;2022-12-31T02:20:02;15.70;99.90
18446;DHT22;9352;50.888;4.466;2022-12-31T02:22:51;15.70;99.90
18446;DHT22;9352;50.888;4.466;2022-12-31T02:25:35;15.70;99.90
18446;DHT22;9352;50.888;4.466;2022-12-31T02:28:16;15.60;99.90
18446;DHT22;9352;50.888;4.466;2022-12-31T02:30:49;15.60;99.90
18446;DHT22;9352;50.888;4.466;2022-12-31T02:33:21;15.50;99.90
18446;DHT22;9352;50.888;4.466;2022-12-31T02:35:55;15.50;99.90
18446;DHT22;9352;50.888;4.466;2022-12-31T02:38:26;15.40;99.90
18446;DHT22;9352;50.888;4.466;2022-12-31T02:40:55;15.50;99.90
18446;DHT22;9352;50.888;4.466;2022-12-31T02:43:23;15.50;99.90
18446;DHT22;9352;50.888;4.466;2022-12-31T02:45:57;15.50;99.90
18446;DHT22;9352;50.888;4.466;2022-12-31T02:48:38;15.60;99.90
18446;DHT22;9352;50.888;4.466;2022-12-31T02:51:18;15.60;99.90
18446;DHT22;9352;50.888;4.466;2022-12-31T02:54:16;15.60;99.90
18446;DHT22;9352;50.888;4.466;2022-12-31T02:56:51;15.70;99.90
18446;DHT22;9352;50.888;4.466;2022-12-31T02:59:26;15.70;99.90
18446;DHT22;9352;50.888;4.466;2022-12-31T03:02:17;15.60;99.90
18446;DHT22;9352;50.888;4.466;2022-12-31T03:04:48;15.60;99.90
18446;DHT22;9352;50.888;4.466;2022-12-31T03:07:19;15.50;99.90
18446;DHT22;9352;50.888;4.466;2022-12-31T03:09:47;15.50;99.90
18446;DHT22;9352;50.888;4.466;2022-12-31T03:12:14;15.60;99.90
18446;DHT22;9352;50.888;4.466;2022-12-31T03:14:59;15.60;99.90
18446;DHT22;9352;50.888;4.466;2022-12-31T03:17:33;15.60;99.90
18446;DHT22;9352;50.888;4.466;2022-12-31T03:20:00;15.60;99.90
18446;DHT22;9352;50.888;4.466;2022-12-31T03:22:44;15.60;99.90
18446;DHT22;9352;50.888;4.466;2022-12-31T03:25:12;15.60;99.90
18446;DHT22;9352;50.888;4.466;2022-12-31T03:27:58;15.70;99.90
18446;DHT22;9352;50.888;4.466;2022-12-31T03:30:26;15.70;99.90
18446;DHT22;9352;50.888;4.466;2022-12-31T03:32:54;15.70;99.90
18446;DHT22;9352;50.888;4.466;2022-12-31T03:35:23;15.80;99.90
18446;DHT22;9352;50.888;4.466;2022-12-31T03:37:50;15.80;99.90
18446;DHT22;9352;50.888;4.466;2022-12-31T03:40:19;15.80;99.90
18446;DHT22;9352;50.888;4.466;2022-12-31T03:42:47;15.90;99.90
18446;DHT22;9352;50.888;4.466;2022-12-31T03:45:14;15.90;99.90
18446;DHT22;9352;50.888;4.466;2022-12-31T03:47:41;15.90;99.90
18446;DHT22;9352;50.888;4.466;2022-12-31T03:50:10;15.90;99.90
18446;DHT22;9352;50.888;4.466;2022-12-31T03:52:38;15.90;99.90
18446;DHT22;9352;50.888;4.466;2022-12-31T03:55:06;16.00;99.90
18446;DHT22;9352;50.888;4.466;2022-12-31T03:57:33;16.00;99.90
18446;DHT22;9352;50.888;4.466;2022-12-31T04:00:00;16.10;99.90
18446;DHT22;9352;50.888;4.466;2022-12-31T04:02:27;16.10;99.90
18446;DHT22;9352;50.888;4.466;2022-12-31T04:04:54;16.20;99.90
18446;DHT22;9352;50.888;4.466;2022-12-31T04:07:22;16.20;99.90
18446;DHT22;9352;50.888;4.466;2022-12-31T04:09:49;16.30;99.90
18446;DHT22;9352;50.888;4.466;2022-12-31T04:12:16;16.30;99.90
18446;DHT22;9352;50.888;4.466;2022-12-31T04:14:43;16.40;99.90
18446;DHT22;9352;50.888;4.466;2022-12-31T04:17:10;16.40;99.90
18446;DHT22;9352;50.888;4.466;2022-12-31T04:19:37;16.40;99.90
18446;DHT22;9352;50.888;4.466;2022-12-31T04:22:04;16.40;99.90
18446;DHT22;9352;50.888;4.466;2022-12-31T04:24:33;16.50;99.90
18446;DHT22;9352;50.888;4.466;2022-12-31T04:27:00;16.50;99.90
18446;DHT22;9352;50.888;4.466;2022-12-31T04:29:27;16.50;99.90
18446;DHT22;9352;50.888;4.466;2022-12-31T04:31:54;16.50;99.90
18446;DHT22;9352;50.888;4.466;2022-12-31T04:34:23;16.50;99.90
18446;DHT22;9352;50.888;4.466;2022-12-31T04:36:50;16.40;99.90
18446;DHT22;9352;50.888;4.466;2022-12-31T04:39:17;16.30;99.90
18446;DHT22;9352;50.888;4.466;2022-12-31T04:41:46;16.20;99.90
18446;DHT22;9352;50.888;4.466;2022-12-31T04:44:13;16.10;99.90
18446;DHT22;9352;50.888;4.466;2022-12-31T04:46:40;16.10;99.90
18446;DHT22;9352;50.888;4.466;2022-12-31T04:49:07;16.00;99.90
18446;DHT22;9352;50.888;4.466;2022-12-31T04:51:35;16.00;99.90
18446;DHT22;9352;50.888;4.466;2022-12-31T04:54:02;16.10;99.90
18446;DHT22;9352;50.888;4.466;2022-12-31T04:56:29;16.10;99.90
18446;DHT22;9352;50.888;4.466;2022-12-31T04:58:58;16.20;99.90
18446;DHT22;9352;50.888;4.466;2022-12-31T05:01:25;16.30;99.90
18446;DHT22;9352;50.888;4.466;2022-12-31T05:03:51;16.40;99.90
18446;DHT22;9352;50.888;4.466;2022-12-31T05:06:21;16.40;99.90
18446;DHT22;9352;50.888;4.466;2022-12-31T05:08:48;16.50;99.90
18446;DHT22;9352;50.888;4.466;2022-12-31T05:11:16;16.50;99.90
18446;DHT22;9352;50.888;4.466;2022-12-31T05:13:43;16.70;99.90
18446;DHT22;9352;50.888;4.466;2022-12-31T05:16:11;16.70;99.90
18446;DHT22;9352;50.888;4.466;2022-12-31T05:18:38;16.70;99.90
18446;DHT22;9352;50.888;4.466;2022-12-31T05:21:05;16.70;99.90
18446;DHT22;9352;50.888;4.466;2022-12-31T05:23:33;16.70;99.90
18446;DHT22;9352;50.888;4.466;2022-12-31T05:26:00;16.70;99.90
18446;DHT22;9352;50.888;4.466;2022-12-31T05:28:27;16.70;99.90
18446;DHT22;9352;50.888;4.466;2022-12-31T05:30:54;16.70;99.90
18446;DHT22;9352;50.888;4.466;2022-12-31T05:33:23;16.70;99.90
18446;DHT22;9352;50.888;4.466;2022-12-31T05:35:49;16.80;99.90
18446;DHT22;9352;50.888;4.466;2022-12-31T05:38:16;16.70;99.90
18446;DHT22;9352;50.888;4.466;2022-12-31T05:40:43;16.70;99.90
18446;DHT22;9352;50.888;4.466;2022-12-31T05:43:10;16.80;99.90
18446;DHT22;9352;50.888;4.466;2022-12-31T05:45:37;16.80;99.90
18446;DHT22;9352;50.888;4.466;2022-12-31T05:48:05;16.80;99.90
18446;DHT22;9352;50.888;4.466;2022-12-31T05:50:33;16.80;99.90
18446;DHT22;9352;50.888;4.466;2022-12-31T05:53:00;16.90;99.90
18446;DHT22;9352;50.888;4.466;2022-12-31T05:55:27;16.90;99.90
18446;DHT22;9352;50.888;4.466;2022-12-31T05:57:54;16.90;99.90
18446;DHT22;9352;50.888;4.466;2022-12-31T06:00:21;16.90;99.90
18446;DHT22;9352;50.888;4.466;2022-12-31T06:02:47;16.90;99.90
18446;DHT22;9352;50.888;4.466;2022-12-31T06:05:14;16.90;99.90
18446;DHT22;9352;50.888;4.466;2022-12-31T06:07:43;16.90;99.90
18446;DHT22;9352;50.888;4.466;2022-12-31T06:10:10;16.90;99.90
18446;DHT22;9352;50.888;4.466;2022-12-31T06:12:39;16.90;99.90
18446;DHT22;9352;50.888;4.466;2022-12-31T06:15:07;16.90;99.90
18446;DHT22;9352;50.888;4.466;2022-12-31T06:17:34;16.90;99.90
18446;DHT22;9352;50.888;4.466;2022-12-31T06:20:01;16.90;99.90
18446;DHT22;9352;50.888;4.466;2022-12-31T06:22:28;16.80;99.90
18446;DHT22;9352;50.888;4.466;2022-12-31T06:24:57;16.80;99.90
18446;DHT22;9352;50.888;4.466;2022-12-31T06:27:24;16.80;99.90
18446;DHT22;9352;50.888;4.466;2022-12-31T06:29:50;16.90;99.90
18446;DHT22;9352;50.888;4.466;2022-12-31T06:32:17;16.80;99.90
18446;DHT22;9352;50.888;4.466;2022-12-31T06:34:44;16.80;99.90
18446;DHT22;9352;50.888;4.466;2022-12-31T06:37:11;16.80;99.90
18446;DHT22;9352;50.888;4.466;2022-12-31T06:39:38;16.80;99.90
18446;DHT22;9352;50.888;4.466;2022-12-31T06:42:06;16.80;99.90
18446;DHT22;9352;50.888;4.466;2022-12-31T06:44:33;16.90;99.90
18446;DHT22;9352;50.888;4.466;2022-12-31T06:47:00;16.90;99.90
18446;DHT22;9352;50.888;4.466;2022-12-31T06:49:27;16.90;99.90
18446;DHT22;9352;50.888;4.466;2022-12-31T06:51:54;16.80;99.90
18446;DHT22;9352;50.888;4.466;2022-12-31T06:54:21;16.90;99.90
18446;DHT22;9352;50.888;4.466;2022-12-31T06:56:48;16.90;99.90
18446;DHT22;9352;50.888;4.466;2022-12-31T06:59:25;16.90;99.90
18446;DHT22;9352;50.888;4.466;2022-12-31T07:02:13;16.90;99.90
18446;DHT22;9352;50.888;4.466;2022-12-31T07:05:11;16.80;99.90
18446;DHT22;9352;50.888;4.466;2022-12-31T07:07:47;16.70;99.90
18446;DHT22;9352;50.888;4.466;2022-12-31T07:10:21;16.50;99.90
18446;DHT22;9352;50.888;4.466;2022-12-31T07:13:07;16.40;99.90
18446;DHT22;9352;50.888;4.466;2022-12-31T07:15:55;16.20;99.90
18446;DHT22;9352;50.888;4.466;2022-12-31T07:18:34;16.10;99.90
18446;DHT22;9352;50.888;4.466;2022-12-31T07:21:02;16.10;99.90
18446;DHT22;9352;50.888;4.466;2022-12-31T07:23:29;16.10;99.90
18446;DHT22;9352;50.888;4.466;2022-12-31T07:26:02;16.00;99.90
18446;DHT22;9352;50.888;4.466;2022-12-31T07:28:50;16.00;99.90
18446;DHT22;9352;50.888;4.466;2022-12-31T07:31:29;15.90;99.90
18446;DHT22;9352;50.888;4.466;2022-12-31T07:33:59;15.90;99.90
18446;DHT22;9352;50.888;4.466;2022-12-31T07:39:24;16.00;99.90
18446;DHT22;9352;50.888;4.466;2022-12-31T07:41:57;16.10;99.90
18446;DHT22;9352;50.888;4.466;2022-12-31T07:44:39;16.10;99.90
18446;DHT22;9352;50.888;4.466;2022-12-31T07:47:19;16.20;99.90
18446;DHT22;9352;50.888;4.466;2022-12-31T07:49:47;16.20;99.90
18446;DHT22;9352;50.888;4.466;2022-12-31T07:52:16;16.20;99.90
18446;DHT22;9352;50.888;4.466;2022-12-31T07:54:43;16.10;99.90
18446;DHT22;9352;50.888;4.466;2022-12-31T07:57:11;15.90;99.90
18446;DHT22;9352;50.888;4.466;2022-12-31T07:59:50;15.70;99.90
18446;DHT22;9352;50.888;4.466;2022-12-31T08:02:35;15.50;99.90
18446;DHT22;9352;50.888;4.466;2022-12-31T08:05:10;15.40;99.90
18446;DHT22;9352;50.888;4.466;2022-12-31T08:07:46;15.50;99.90
18446;DHT22;9352;50.888;4.466;2022-12-31T08:10:19;15.50;99.90
18446;DHT22;9352;50.888;4.466;2022-12-31T08:12:57;15.60;99.90
18446;DHT22;9352;50.888;4.466;2022-12-31T08:15:26;15.70;99.90
18446;DHT22;9352;50.888;4.466;2022-12-31T08:17:55;15.80;99.90
18446;DHT22;9352;50.888;4.466;2022-12-31T08:20:22;15.80;99.90
18446;DHT22;9352;50.888;4.466;2022-12-31T08:23:08;15.80;99.90
18446;DHT22;9352;50.888;4.466;2022-12-31T08:25:44;15.80;99.90
18446;DHT22;9352;50.888;4.466;2022-12-31T08:28:21;16.00;99.90
18446;DHT22;9352;50.888;4.466;2022-12-31T08:30:55;16.00;99.90
18446;DHT22;9352;50.888;4.466;2022-12-31T08:33:28;16.10;99.90
18446;DHT22;9352;50.888;4.466;2022-12-31T08:36:09;16.10;99.90
18446;DHT22;9352;50.888;4.466;2022-12-31T08:38:49;16.20;99.90
18446;DHT22;9352;50.888;4.466;2022-12-31T08:41:25;16.20;99.90
18446;DHT22;9352;50.888;4.466;2022-12-31T08:44:00;16.30;99.90
18446;DHT22;9352;50.888;4.466;2022-12-31T08:46:36;16.40;99.90
18446;DHT22;9352;50.888;4.466;2022-12-31T08:49:08;16.40;99.90
18446;DHT22;9352;50.888;4.466;2022-12-31T08:51:35;16.50;99.90
18446;DHT22;9352;50.888;4.466;2022-12-31T08:54:03;16.50;99.90
18446;DHT22;9352;50.888;4.466;2022-12-31T08:56:32;16.60;99.90
18446;DHT22;9352;50.888;4.466;2022-12-31T08:59:17;16.70;99.90
18446;DHT22;9352;50.888;4.466;2022-12-31T09:02:09;16.70;99.90
18446;DHT22;9352;50.888;4.466;2022-12-31T09:04:47;16.70;99.90
18446;DHT22;9352;50.888;4.466;2022-12-31T09:07:25;16.70;99.90
18446;DHT22;9352;50.888;4.466;2022-12-31T09:10:01;16.80;99.90
18446;DHT22;9352;50.888;4.466;2022-12-31T09:12:31;16.80;99.90
18446;DHT22;9352;50.888;4.466;2022-12-31T09:15:06;16.70;99.90
18446;DHT22;9352;50.888;4.466;2022-12-31T09:17:43;16.80;99.90
18446;DHT22;9352;50.888;4.466;2022-12-31T09:20:19;16.80;99.90
18446;DHT22;9352;50.888;4.466;2022-12-31T09:22:48;16.80;99.90
18446;DHT22;9352;50.888;4.466;2022-12-31T09:25:17;16.80;99.90
18446;DHT22;9352;50.888;4.466;2022-12-31T09:27:55;16.90;99.90
18446;DHT22;9352;50.888;4.466;2022-12-31T09:30:25;16.90;99.90
18446;DHT22;9352;50.888;4.466;2022-12-31T09:32:59;16.80;99.90
18446;DHT22;9352;50.888;4.466;2022-12-31T09:35:35;16.90;99.90
18446;DHT22;9352;50.888;4.466;2022-12-31T09:38:06;16.90;99.90
18446;DHT22;9352;50.888;4.466;2022-12-31T09:40:56;16.90;99.90
18446;DHT22;9352;50.888;4.466;2022-12-31T09:44:01;17.00;99.90
18446;DHT22;9352;50.888;4.466;2022-12-31T09:50:14;16.80;99.90
18446;DHT22;9352;50.888;4.466;2022-12-31T09:55:55;16.60;99.90
18446;DHT22;9352;50.888;4.466;2022-12-31T09:58:32;16.70;99.90
18446;DHT22;9352;50.888;4.466;2022-12-31T10:01:06;16.70;99.90
18446;DHT22;9352;50.888;4.466;2022-12-31T10:03:50;16.80;99.90
18446;DHT22;9352;50.888;4.466;2022-12-31T10:06:25;16.80;99.90
18446;DHT22;9352;50.888;4.466;2022-12-31T10:09:20;16.90;99.90
18446;DHT22;9352;50.888;4.466;2022-12-31T10:12:11;17.00;99.90
18446;DHT22;9352;50.888;4.466;2022-12-31T10:14:55;17.10;99.90
18446;DHT22;9352;50.888;4.466;2022-12-31T10:17:34;17.20;99.90
18446;DHT22;9352;50.888;4.466;2022-12-31T10:20:19;17.20;99.90
18446;DHT22;9352;50.888;4.466;2022-12-31T10:23:31;17.20;99.90
18446;DHT22;9352;50.888;4.466;2022-12-31T10:26:15;17.30;99.90
18446;DHT22;9352;50.888;4.466;2022-12-31T10:28:53;17.30;99.90
18446;DHT22;9352;50.888;4.466;2022-12-31T10:31:36;17.30;99.90
18446;DHT22;9352;50.888;4.466;2022-12-31T10:34:15;17.30;99.90
18446;DHT22;9352;50.888;4.466;2022-12-31T10:36:52;17.30;99.90
18446;DHT22;9352;50.888;4.466;2022-12-31T10:39:26;17.30;99.90
18446;DHT22;9352;50.888;4.466;2022-12-31T10:45:32;17.20;99.90
18446;DHT22;9352;50.888;4.466;2022-12-31T10:48:38;17.20;99.90
18446;DHT22;9352;50.888;4.466;2022-12-31T10:51:28;17.20;99.90
18446;DHT22;9352;50.888;4.466;2022-12-31T10:54:21;17.10;99.90
18446;DHT22;9352;50.888;4.466;2022-12-31T10:57:25;17.20;99.90
18446;DHT22;9352;50.888;4.466;2022-12-31T11:00:16;17.20;99.90
18446;DHT22;9352;50.888;4.466;2022-12-31T11:06:24;17.20;99.90
18446;DHT22;9352;50.888;4.466;2022-12-31T11:12:14;17.00;99.90
18446;DHT22;9352;50.888;4.466;2022-12-31T11:15:12;17.00;99.90
18446;DHT22;9352;50.888;4.466;2022-12-31T11:17:50;16.90;99.90
18446;DHT22;9352;50.888;4.466;2022-12-31T11:20:33;16.80;99.90
18446;DHT22;9352;50.888;4.466;2022-12-31T11:23:17;16.70;99.90
18446;DHT22;9352;50.888;4.466;2022-12-31T11:25:56;16.60;99.90
18446;DHT22;9352;50.888;4.466;2022-12-31T11:28:44;16.60;99.90
18446;DHT22;9352;50.888;4.466;2022-12-31T11:31:31;16.60;99.90
18446;DHT22;9352;50.888;4.466;2022-12-31T11:34:13;16.60;99.90
18446;DHT22;9352;50.888;4.466;2022-12-31T11:36:58;16.70;99.90
18446;DHT22;9352;50.888;4.466;2022-12-31T11:39:42;16.70;99.90
18446;DHT22;9352;50.888;4.466;2022-12-31T11:42:19;16.70;99.90
18446;DHT22;9352;50.888;4.466;2022-12-31T11:44:52;16.80;99.90
18446;DHT22;9352;50.888;4.466;2022-12-31T11:47:43;16.90;99.90
18446;DHT22;9352;50.888;4.466;2022-12-31T11:50:28;17.00;99.90
18446;DHT22;9352;50.888;4.466;2022-12-31T11:53:10;17.10;99.90
18446;DHT22;9352;50.888;4.466;2022-12-31T11:55:55;17.10;99.90
18446;DHT22;9352;50.888;4.466;2022-12-31T11:58:24;17.20;99.90
18446;DHT22;9352;50.888;4.466;2022-12-31T12:00:55;17.20;99.90
18446;DHT22;9352;50.888;4.466;2022-12-31T12:03:23;17.30;99.90
18446;DHT22;9352;50.888;4.466;2022-12-31T12:05:51;17.30;99.90
18446;DHT22;9352;50.888;4.466;2022-12-31T12:08:18;17.20;99.90
18446;DHT22;9352;50.888;4.466;2022-12-31T12:10:49;17.20;99.90
18446;DHT22;9352;50.888;4.466;2022-12-31T12:13:22;17.20;99.90
18446;DHT22;9352;50.888;4.466;2022-12-31T12:15:51;17.20;99.90
18446;DHT22;9352;50.888;4.466;2022-12-31T12:18:29;17.30;99.90
18446;DHT22;9352;50.888;4.466;2022-12-31T12:21:05;17.30;99.90
18446;DHT22;9352;50.888;4.466;2022-12-31T12:23:34;17.30;99.90
18446;DHT22;9352;50.888;4.466;2022-12-31T12:26:02;17.30;99.90
18446;DHT22;9352;50.888;4.466;2022-12-31T12:28:39;17.20;99.90
18446;DHT22;9352;50.888;4.466;2022-12-31T12:31:13;17.20;99.90
18446;DHT22;9352;50.888;4.466;2022-12-31T12:33:45;17.10;99.90
18446;DHT22;9352;50.888;4.466;2022-12-31T12:36:15;17.00;99.90
18446;DHT22;9352;50.888;4.466;2022-12-31T12:38:42;16.90;99.90
18446;DHT22;9352;50.888;4.466;2022-12-31T12:41:17;16.90;99.90
18446;DHT22;9352;50.888;4.466;2022-12-31T12:43:44;16.80;99.90
18446;DHT22;9352;50.888;4.466;2022-12-31T12:46:19;16.80;99.90
18446;DHT22;9352;50.888;4.466;2022-12-31T12:48:48;16.80;99.90
18446;DHT22;9352;50.888;4.466;2022-12-31T12:51:30;16.80;99.90
18446;DHT22;9352;50.888;4.466;2022-12-31T12:54:06;16.70;99.90
18446;DHT22;9352;50.888;4.466;2022-12-31T12:56:41;16.70;99.90
18446;DHT22;9352;50.888;4.466;2022-12-31T13:02:25;16.60;99.90
18446;DHT22;9352;50.888;4.466;2022-12-31T13:05:02;16.70;99.90
18446;DHT22;9352;50.888;4.466;2022-12-31T13:07:46;16.70;99.90
18446;DHT22;9352;50.888;4.466;2022-12-31T13:10:30;16.70;99.90
18446;DHT22;9352;50.888;4.466;2022-12-31T13:13:06;16.80;99.90
18446;DHT22;9352;50.888;4.466;2022-12-31T13:15:39;16.80;99.90
18446;DHT22;9352;50.888;4.466;2022-12-31T13:18:14;16.90;99.90
18446;DHT22;9352;50.888;4.466;2022-12-31T13:20:51;16.90;99.90
18446;DHT22;9352;50.888;4.466;2022-12-31T13:23:25;16.90;99.90
18446;DHT22;9352;50.888;4.466;2022-12-31T13:26:02;16.90;99.90
18446;DHT22;9352;50.888;4.466;2022-12-31T13:28:33;16.90;99.90
18446;DHT22;9352;50.888;4.466;2022-12-31T13:31:04;16.90;99.90
18446;DHT22;9352;50.888;4.466;2022-12-31T13:33:35;16.90;99.90
18446;DHT22;9352;50.888;4.466;2022-12-31T13:36:06;16.90;99.90
18446;DHT22;9352;50.888;4.466;2022-12-31T13:38:35;16.90;99.90
18446;DHT22;9352;50.888;4.466;2022-12-31T13:41:08;16.90;99.90
18446;DHT22;9352;50.888;4.466;2022-12-31T13:43:44;16.90;99.90
18446;DHT22;9352;50.888;4.466;2022-12-31T13:46:18;16.90;99.90
18446;DHT22;9352;50.888;4.466;2022-12-31T13:48:52;16.80;99.90
18446;DHT22;9352;50.888;4.466;2022-12-31T13:51:26;16.80;99.90
18446;DHT22;9352;50.888;4.466;2022-12-31T13:53:59;16.90;99.90
18446;DHT22;9352;50.888;4.466;2022-12-31T13:56:33;16.90;99.90
18446;DHT22;9352;50.888;4.466;2022-12-31T13:59:04;16.90;99.90
18446;DHT22;9352;50.888;4.466;2022-12-31T14:01:37;16.90;99.90
18446;DHT22;9352;50.888;4.466;2022-12-31T14:04:09;16.90;99.90
18446;DHT22;9352;50.888;4.466;2022-12-31T14:06:43;16.90;99.90
18446;DHT22;9352;50.888;4.466;2022-12-31T14:09:16;16.90;99.90
18446;DHT22;9352;50.888;4.466;2022-12-31T14:11:53;16.90;99.90
18446;DHT22;9352;50.888;4.466;2022-12-31T14:14:33;16.90;99.90
18446;DHT22;9352;50.888;4.466;2022-12-31T14:17:14;16.80;99.90
18446;DHT22;9352;50.888;4.466;2022-12-31T14:19:55;16.80;99.90
18446;DHT22;9352;50.888;4.466;2022-12-31T14:22:29;16.80;99.90
18446;DHT22;9352;50.888;4.466;2022-12-31T14:25:00;16.70;99.90
18446;DHT22;9352;50.888;4.466;2022-12-31T14:27:30;16.70;99.90
18446;DHT22;9352;50.888;4.466;2022-12-31T14:30:02;16.60;99.90
18446;DHT22;9352;50.888;4.466;2022-12-31T14:32:48;16.60;99.90
18446;DHT22;9352;50.888;4.466;2022-12-31T14:38:17;16.60;99.90
18446;DHT22;9352;50.888;4.466;2022-12-31T14:40:53;16.60;99.90
18446;DHT22;9352;50.888;4.466;2022-12-31T14:43:27;16.60;99.90
18446;DHT22;9352;50.888;4.466;2022-12-31T14:46:09;16.50;99.90
18446;DHT22;9352;50.888;4.466;2022-12-31T14:48:47;16.50;99.90
18446;DHT22;9352;50.888;4.466;2022-12-31T14:51:20;16.50;99.90
18446;DHT22;9352;50.888;4.466;2022-12-31T14:53:51;16.40;99.90
18446;DHT22;9352;50.888;4.466;2022-12-31T14:56:36;16.40;99.90
18446;DHT22;9352;50.888;4.466;2022-12-31T14:59:23;16.30;99.90
18446;DHT22;9352;50.888;4.466;2022-12-31T15:01:52;16.40;99.90
18446;DHT22;9352;50.888;4.466;2022-12-31T15:04:30;16.40;99.90
18446;DHT22;9352;50.888;4.466;2022-12-31T15:07:04;16.30;99.90
18446;DHT22;9352;50.888;4.466;2022-12-31T15:09:48;16.30;99.90
18446;DHT22;9352;50.888;4.466;2022-12-31T15:12:30;16.30;99.90
18446;DHT22;9352;50.888;4.466;2022-12-31T15:15:33;16.30;99.90
18446;DHT22;9352;50.888;4.466;2022-12-31T15:18:14;16.20;99.90
18446;DHT22;9352;50.888;4.466;2022-12-31T15:23:58;16.20;99.90
18446;DHT22;9352;50.888;4.466;2022-12-31T15:26:27;16.20;99.90
18446;DHT22;9352;50.888;4.466;2022-12-31T15:28:58;16.20;99.90
18446;DHT22;9352;50.888;4.466;2022-12-31T15:31:26;16.30;99.90
18446;DHT22;9352;50.888;4.466;2022-12-31T15:34:00;16.30;99.90
18446;DHT22;9352;50.888;4.466;2022-12-31T15:36:29;16.30;99.90
18446;DHT22;9352;50.888;4.466;2022-12-31T15:41:51;16.10;99.90
18446;DHT22;9352;50.888;4.466;2022-12-31T15:44:23;16.10;99.90
18446;DHT22;9352;50.888;4.466;2022-12-31T15:46:57;16.10;99.90
18446;DHT22;9352;50.888;4.466;2022-12-31T15:49:31;16.10;99.90
18446;DHT22;9352;50.888;4.466;2022-12-31T15:52:04;16.10;99.90
18446;DHT22;9352;50.888;4.466;2022-12-31T15:54:36;16.10;99.90
18446;DHT22;9352;50.888;4.466;2022-12-31T15:57:04;16.20;99.90
18446;DHT22;9352;50.888;4.466;2022-12-31T15:59:33;16.10;99.90
18446;DHT22;9352;50.888;4.466;2022-12-31T16:02:00;16.20;99.90
18446;DHT22;9352;50.888;4.466;2022-12-31T16:04:29;16.20;99.90
18446;DHT22;9352;50.888;4.466;2022-12-31T16:06:59;16.10;99.90
18446;DHT22;9352;50.888;4.466;2022-12-31T16:09:28;16.20;99.90
18446;DHT22;9352;50.888;4.466;2022-12-31T16:11:56;16.20;99.90
18446;DHT22;9352;50.888;4.466;2022-12-31T16:14:27;16.20;99.90
18446;DHT22;9352;50.888;4.466;2022-12-31T16:16:57;16.10;99.90
18446;DHT22;9352;50.888;4.466;2022-12-31T16:19:32;16.10;99.90
18446;DHT22;9352;50.888;4.466;2022-12-31T16:22:05;16.10;99.90
18446;DHT22;9352;50.888;4.466;2022-12-31T16:24:34;16.10;99.90
18446;DHT22;9352;50.888;4.466;2022-12-31T16:27:05;16.10;99.90
18446;DHT22;9352;50.888;4.466;2022-12-31T16:29:35;16.20;99.90
18446;DHT22;9352;50.888;4.466;2022-12-31T16:32:02;16.10;99.90
18446;DHT22;9352;50.888;4.466;2022-12-31T16:34:36;16.10;99.90
18446;DHT22;9352;50.888;4.466;2022-12-31T16:37:05;16.00;99.90
18446;DHT22;9352;50.888;4.466;2022-12-31T16:39:33;16.10;99.90
18446;DHT22;9352;50.888;4.466;2022-12-31T16:42:15;16.00;99.90
18446;DHT22;9352;50.888;4.466;2022-12-31T16:44:42;15.90;99.90
18446;DHT22;9352;50.888;4.466;2022-12-31T16:47:15;15.90;99.90
18446;DHT22;9352;50.888;4.466;2022-12-31T16:49:46;15.90;99.90
18446;DHT22;9352;50.888;4.466;2022-12-31T16:52:24;15.80;99.90
18446;DHT22;9352;50.888;4.466;2022-12-31T16:54:53;15.80;99.90
18446;DHT22;9352;50.888;4.466;2022-12-31T16:57:23;15.80;99.90